sensor_id;sensor_type;location;lat;lon;timestamp;P1;durP1;ratioP1;P2;durP2;ratioP2
12296;SDS011;6211;49.124;9.152;2023-08-21T00:00:17;5.65;;;3.97;;
12296;SDS011;6211;49.124;9.152;2023-08-21T00:02:44;3.90;;;3.50;;
12296;SDS011;6211;49.124;9.152;2023-08-21T00:05:12;4.20;;;3.42;;
12296;SDS011;6211;49.124;9.152;2023-08-21T00:07:39;4.55;;;3.67;;
12296;SDS011;6211;49.124;9.152;2023-08-21T00:10:07;5.93;;;3.95;;
12296;SDS011;6211;49.124;9.152;2023-08-21T00:12:35;7.38;;;4.18;;
12296;SDS011;6211;49.124;9.152;2023-08-21T00:15:02;4.53;;;3.95;;
12296;SDS011;6211;49.124;9.152;2023-08-21T00:17:29;4.70;;;3.40;;
12296;SDS011;6211;49.124;9.152;2023-08-21T00:19:56;3.78;;;3.42;;
12296;SDS011;6211;49.124;9.152;2023-08-21T00:22:25;4.90;;;3.63;;
12296;SDS011;6211;49.124;9.152;2023-08-21T00:24:52;4.25;;;3.85;;
12296;SDS011;6211;49.124;9.152;2023-08-21T00:27:19;4.50;;;4.05;;
12296;SDS011;6211;49.124;9.152;2023-08-21T00:29:46;4.13;;;3.72;;
12296;SDS011;6211;49.124;9.152;2023-08-21T00:32:13;4.97;;;4.05;;
12296;SDS011;6211;49.124;9.152;2023-08-21T00:34:41;5.55;;;4.05;;
12296;SDS011;6211;49.124;9.152;2023-08-21T00:37:08;4.85;;;3.83;;
12296;SDS011;6211;49.124;9.152;2023-08-21T00:39:37;3.88;;;3.58;;
12296;SDS011;6211;49.124;9.152;2023-08-21T00:42:04;5.85;;;3.72;;
12296;SDS011;6211;49.124;9.152;2023-08-21T00:44:32;5.20;;;3.75;;
12296;SDS011;6211;49.124;9.152;2023-08-21T00:46:59;5.90;;;3.95;;
12296;SDS011;6211;49.124;9.152;2023-08-21T00:49:27;4.82;;;3.75;;
12296;SDS011;6211;49.124;9.152;2023-08-21T00:51:54;5.82;;;3.42;;
12296;SDS011;6211;49.124;9.152;2023-08-21T00:54:21;5.50;;;4.05;;
12296;SDS011;6211;49.124;9.152;2023-08-21T00:56:50;5.38;;;3.50;;
12296;SDS011;6211;49.124;9.152;2023-08-21T00:59:18;5.18;;;3.92;;
12296;SDS011;6211;49.124;9.152;2023-08-21T01:01:45;4.72;;;4.22;;
12296;SDS011;6211;49.124;9.152;2023-08-21T01:04:12;5.95;;;3.67;;
12296;SDS011;6211;49.124;9.152;2023-08-21T01:06:39;5.57;;;4.28;;
12296;SDS011;6211;49.124;9.152;2023-08-21T01:09:08;5.53;;;4.25;;
12296;SDS011;6211;49.124;9.152;2023-08-21T01:11:39;5.45;;;3.80;;
12296;SDS011;6211;49.124;9.152;2023-08-21T01:14:13;4.80;;;3.50;;
12296;SDS011;6211;49.124;9.152;2023-08-21T01:16:43;4.88;;;4.03;;
12296;SDS011;6211;49.124;9.152;2023-08-21T01:19:13;5.20;;;3.88;;
12296;SDS011;6211;49.124;9.152;2023-08-21T01:21:46;4.43;;;3.97;;
12296;SDS011;6211;49.124;9.152;2023-08-21T01:24:14;6.40;;;4.32;;
12296;SDS011;6211;49.124;9.152;2023-08-21T01:26:41;7.65;;;4.57;;
12296;SDS011;6211;49.124;9.152;2023-08-21T01:29:08;4.38;;;3.97;;
12296;SDS011;6211;49.124;9.152;2023-08-21T01:31:35;4.32;;;3.92;;
12296;SDS011;6211;49.124;9.152;2023-08-21T01:34:05;6.70;;;4.00;;
12296;SDS011;6211;49.124;9.152;2023-08-21T01:36:32;4.68;;;4.18;;
12296;SDS011;6211;49.124;9.152;2023-08-21T01:39:00;4.65;;;3.83;;
12296;SDS011;6211;49.124;9.152;2023-08-21T01:41:29;4.68;;;4.07;;
12296;SDS011;6211;49.124;9.152;2023-08-21T01:43:56;4.63;;;4.10;;
12296;SDS011;6211;49.124;9.152;2023-08-21T01:46:23;6.38;;;4.45;;
12296;SDS011;6211;49.124;9.152;2023-08-21T01:48:50;5.03;;;3.95;;
12296;SDS011;6211;49.124;9.152;2023-08-21T01:51:17;5.13;;;3.83;;
12296;SDS011;6211;49.124;9.152;2023-08-21T01:53:45;5.68;;;4.65;;
12296;SDS011;6211;49.124;9.152;2023-08-21T01:56:13;5.07;;;4.18;;
12296;SDS011;6211;49.124;9.152;2023-08-21T01:58:41;5.45;;;3.80;;
12296;SDS011;6211;49.124;9.152;2023-08-21T02:01:08;6.40;;;4.07;;
12296;SDS011;6211;49.124;9.152;2023-08-21T02:03:35;5.00;;;4.50;;
12296;SDS011;6211;49.124;9.152;2023-08-21T02:06:02;4.80;;;4.30;;
12296;SDS011;6211;49.124;9.152;2023-08-21T02:08:30;5.10;;;4.28;;
12296;SDS011;6211;49.124;9.152;2023-08-21T02:10:58;4.88;;;4.07;;
12296;SDS011;6211;49.124;9.152;2023-08-21T02:13:25;5.93;;;4.15;;
12296;SDS011;6211;49.124;9.152;2023-08-21T02:15:53;5.38;;;4.43;;
12296;SDS011;6211;49.124;9.152;2023-08-21T02:18:20;5.10;;;3.88;;
12296;SDS011;6211;49.124;9.152;2023-08-21T02:20:48;5.07;;;4.05;;
12296;SDS011;6211;49.124;9.152;2023-08-21T02:23:15;4.72;;;4.20;;
12296;SDS011;6211;49.124;9.152;2023-08-21T02:25:42;5.55;;;4.10;;
12296;SDS011;6211;49.124;9.152;2023-08-21T02:28:09;5.85;;;3.97;;
12296;SDS011;6211;49.124;9.152;2023-08-21T02:30:39;4.70;;;3.90;;
12296;SDS011;6211;49.124;9.152;2023-08-21T02:33:08;6.70;;;4.10;;
12296;SDS011;6211;49.124;9.152;2023-08-21T02:35:35;5.72;;;3.50;;
12296;SDS011;6211;49.124;9.152;2023-08-21T02:38:02;4.07;;;3.58;;
12296;SDS011;6211;49.124;9.152;2023-08-21T02:40:29;4.68;;;3.63;;
12296;SDS011;6211;49.124;9.152;2023-08-21T02:42:56;5.88;;;3.92;;
12296;SDS011;6211;49.124;9.152;2023-08-21T02:45:23;4.90;;;4.20;;
12296;SDS011;6211;49.124;9.152;2023-08-21T02:47:50;4.88;;;3.80;;
12296;SDS011;6211;49.124;9.152;2023-08-21T02:50:19;6.50;;;3.97;;
12296;SDS011;6211;49.124;9.152;2023-08-21T02:52:46;4.10;;;3.63;;
12296;SDS011;6211;49.124;9.152;2023-08-21T02:55:13;7.28;;;4.25;;
12296;SDS011;6211;49.124;9.152;2023-08-21T02:57:41;6.05;;;4.57;;
12296;SDS011;6211;49.124;9.152;2023-08-21T03:00:08;4.88;;;4.18;;
12296;SDS011;6211;49.124;9.152;2023-08-21T03:02:36;5.10;;;4.00;;
12296;SDS011;6211;49.124;9.152;2023-08-21T03:05:08;7.47;;;4.40;;
12296;SDS011;6211;49.124;9.152;2023-08-21T03:10:40;4.55;;;3.90;;
12296;SDS011;6211;49.124;9.152;2023-08-21T03:13:07;8.27;;;5.03;;
12296;SDS011;6211;49.124;9.152;2023-08-21T03:15:34;5.57;;;4.25;;
12296;SDS011;6211;49.124;9.152;2023-08-21T03:18:01;4.72;;;3.88;;
12296;SDS011;6211;49.124;9.152;2023-08-21T03:20:28;6.47;;;3.97;;
12296;SDS011;6211;49.124;9.152;2023-08-21T03:22:55;5.22;;;4.25;;
12296;SDS011;6211;49.124;9.152;2023-08-21T03:25:23;4.70;;;3.83;;
12296;SDS011;6211;49.124;9.152;2023-08-21T03:27:51;5.80;;;4.88;;
12296;SDS011;6211;49.124;9.152;2023-08-21T03:30:18;4.70;;;4.18;;
12296;SDS011;6211;49.124;9.152;2023-08-21T03:32:46;5.65;;;4.63;;
12296;SDS011;6211;49.124;9.152;2023-08-21T03:35:13;4.95;;;3.88;;
12296;SDS011;6211;49.124;9.152;2023-08-21T03:37:40;8.13;;;4.55;;
12296;SDS011;6211;49.124;9.152;2023-08-21T03:40:08;4.18;;;3.70;;
12296;SDS011;6211;49.124;9.152;2023-08-21T03:42:35;4.30;;;3.90;;
12296;SDS011;6211;49.124;9.152;2023-08-21T03:45:04;5.43;;;4.00;;
12296;SDS011;6211;49.124;9.152;2023-08-21T03:47:31;6.38;;;4.20;;
12296;SDS011;6211;49.124;9.152;2023-08-21T03:49:58;5.50;;;4.05;;
12296;SDS011;6211;49.124;9.152;2023-08-21T03:52:25;4.38;;;3.83;;
12296;SDS011;6211;49.124;9.152;2023-08-21T03:54:52;5.57;;;4.03;;
12296;SDS011;6211;49.124;9.152;2023-08-21T03:57:19;5.60;;;3.83;;
12296;SDS011;6211;49.124;9.152;2023-08-21T03:59:46;5.03;;;4.20;;
12296;SDS011;6211;49.124;9.152;2023-08-21T04:02:15;6.50;;;4.28;;
12296;SDS011;6211;49.124;9.152;2023-08-21T04:04:42;5.72;;;4.10;;
12296;SDS011;6211;49.124;9.152;2023-08-21T04:07:09;6.82;;;4.45;;
12296;SDS011;6211;49.124;9.152;2023-08-21T04:09:36;5.45;;;4.45;;
12296;SDS011;6211;49.124;9.152;2023-08-21T04:12:03;8.57;;;4.55;;
12296;SDS011;6211;49.124;9.152;2023-08-21T04:14:30;4.75;;;4.25;;
12296;SDS011;6211;49.124;9.152;2023-08-21T04:16:58;4.57;;;4.13;;
12296;SDS011;6211;49.124;9.152;2023-08-21T04:19:26;7.45;;;4.30;;
12296;SDS011;6211;49.124;9.152;2023-08-21T04:21:57;5.45;;;4.07;;
12296;SDS011;6211;49.124;9.152;2023-08-21T04:24:25;5.95;;;4.38;;
12296;SDS011;6211;49.124;9.152;2023-08-21T04:26:52;7.43;;;4.43;;
12296;SDS011;6211;49.124;9.152;2023-08-21T04:29:19;4.97;;;4.22;;
12296;SDS011;6211;49.124;9.152;2023-08-21T04:31:46;5.70;;;4.43;;
12296;SDS011;6211;49.124;9.152;2023-08-21T04:34:13;4.78;;;3.60;;
12296;SDS011;6211;49.124;9.152;2023-08-21T04:36:41;4.75;;;4.25;;
12296;SDS011;6211;49.124;9.152;2023-08-21T04:39:09;6.10;;;4.35;;
12296;SDS011;6211;49.124;9.152;2023-08-21T04:41:36;6.93;;;4.10;;
12296;SDS011;6211;49.124;9.152;2023-08-21T04:44:03;4.90;;;4.40;;
12296;SDS011;6211;49.124;9.152;2023-08-21T04:46:30;5.30;;;4.53;;
12296;SDS011;6211;49.124;9.152;2023-08-21T04:48:57;5.18;;;4.68;;
12296;SDS011;6211;49.124;9.152;2023-08-21T04:51:24;8.93;;;4.03;;
12296;SDS011;6211;49.124;9.152;2023-08-21T04:53:53;5.45;;;4.15;;
12296;SDS011;6211;49.124;9.152;2023-08-21T04:56:20;5.72;;;4.57;;
12296;SDS011;6211;49.124;9.152;2023-08-21T04:58:47;5.97;;;4.15;;
12296;SDS011;6211;49.124;9.152;2023-08-21T05:01:14;4.85;;;4.07;;
12296;SDS011;6211;49.124;9.152;2023-08-21T05:03:41;7.35;;;4.85;;
12296;SDS011;6211;49.124;9.152;2023-08-21T05:06:08;5.05;;;4.43;;
12296;SDS011;6211;49.124;9.152;2023-08-21T05:08:35;7.35;;;4.47;;
12296;SDS011;6211;49.124;9.152;2023-08-21T05:11:04;4.55;;;4.15;;
12296;SDS011;6211;49.124;9.152;2023-08-21T05:13:31;7.55;;;4.63;;
12296;SDS011;6211;49.124;9.152;2023-08-21T05:15:58;6.07;;;4.40;;
12296;SDS011;6211;49.124;9.152;2023-08-21T05:18:25;5.38;;;4.32;;
12296;SDS011;6211;49.124;9.152;2023-08-21T05:20:54;5.00;;;4.47;;
12296;SDS011;6211;49.124;9.152;2023-08-21T05:23:21;5.40;;;4.57;;
12296;SDS011;6211;49.124;9.152;2023-08-21T05:25:48;5.72;;;4.30;;
12296;SDS011;6211;49.124;9.152;2023-08-21T05:28:17;5.72;;;3.95;;
12296;SDS011;6211;49.124;9.152;2023-08-21T05:30:46;5.47;;;4.85;;
12296;SDS011;6211;49.124;9.152;2023-08-21T05:33:14;4.95;;;4.28;;
12296;SDS011;6211;49.124;9.152;2023-08-21T05:35:41;5.35;;;4.43;;
12296;SDS011;6211;49.124;9.152;2023-08-21T05:38:08;5.50;;;4.57;;
12296;SDS011;6211;49.124;9.152;2023-08-21T05:40:35;4.95;;;4.45;;
12296;SDS011;6211;49.124;9.152;2023-08-21T05:43:02;5.47;;;4.13;;
12296;SDS011;6211;49.124;9.152;2023-08-21T05:45:31;5.90;;;4.47;;
12296;SDS011;6211;49.124;9.152;2023-08-21T05:47:58;6.18;;;4.68;;
12296;SDS011;6211;49.124;9.152;2023-08-21T05:50:25;7.50;;;5.10;;
12296;SDS011;6211;49.124;9.152;2023-08-21T05:52:52;5.30;;;4.35;;
12296;SDS011;6211;49.124;9.152;2023-08-21T05:55:22;4.88;;;4.30;;
12296;SDS011;6211;49.124;9.152;2023-08-21T05:57:49;5.35;;;4.00;;
12296;SDS011;6211;49.124;9.152;2023-08-21T06:00:16;5.05;;;3.97;;
12296;SDS011;6211;49.124;9.152;2023-08-21T06:02:45;4.50;;;4.10;;
12296;SDS011;6211;49.124;9.152;2023-08-21T06:05:12;5.60;;;4.78;;
12296;SDS011;6211;49.124;9.152;2023-08-21T06:07:39;4.80;;;4.30;;
12296;SDS011;6211;49.124;9.152;2023-08-21T06:10:07;4.20;;;3.78;;
12296;SDS011;6211;49.124;9.152;2023-08-21T06:12:37;5.38;;;4.53;;
12296;SDS011;6211;49.124;9.152;2023-08-21T06:15:05;5.13;;;4.25;;
12296;SDS011;6211;49.124;9.152;2023-08-21T06:17:33;7.15;;;5.10;;
12296;SDS011;6211;49.124;9.152;2023-08-21T06:20:02;8.27;;;5.45;;
12296;SDS011;6211;49.124;9.152;2023-08-21T06:22:30;6.20;;;4.88;;
12296;SDS011;6211;49.124;9.152;2023-08-21T06:24:57;4.65;;;4.20;;
12296;SDS011;6211;49.124;9.152;2023-08-21T06:27:24;9.50;;;4.65;;
12296;SDS011;6211;49.124;9.152;2023-08-21T06:29:52;5.97;;;4.80;;
12296;SDS011;6211;49.124;9.152;2023-08-21T06:32:19;5.32;;;4.07;;
12296;SDS011;6211;49.124;9.152;2023-08-21T06:34:46;9.57;;;5.22;;
12296;SDS011;6211;49.124;9.152;2023-08-21T06:37:14;5.63;;;4.70;;
12296;SDS011;6211;49.124;9.152;2023-08-21T06:39:41;4.63;;;3.95;;
12296;SDS011;6211;49.124;9.152;2023-08-21T06:42:08;7.45;;;5.18;;
12296;SDS011;6211;49.124;9.152;2023-08-21T06:44:35;6.68;;;4.97;;
12296;SDS011;6211;49.124;9.152;2023-08-21T06:47:03;7.40;;;5.28;;
12296;SDS011;6211;49.124;9.152;2023-08-21T06:49:30;6.97;;;5.43;;
12296;SDS011;6211;49.124;9.152;2023-08-21T06:51:58;6.32;;;4.82;;
12296;SDS011;6211;49.124;9.152;2023-08-21T06:54:26;8.00;;;4.93;;
12296;SDS011;6211;49.124;9.152;2023-08-21T06:56:53;4.95;;;4.38;;
12296;SDS011;6211;49.124;9.152;2023-08-21T06:59:20;7.97;;;5.43;;
12296;SDS011;6211;49.124;9.152;2023-08-21T07:01:47;9.95;;;5.32;;
12296;SDS011;6211;49.124;9.152;2023-08-21T07:04:15;9.40;;;4.90;;
12296;SDS011;6211;49.124;9.152;2023-08-21T07:06:42;8.75;;;5.20;;
12296;SDS011;6211;49.124;9.152;2023-08-21T07:09:09;6.05;;;4.32;;
12296;SDS011;6211;49.124;9.152;2023-08-21T07:11:37;9.65;;;5.28;;
12296;SDS011;6211;49.124;9.152;2023-08-21T07:14:04;9.95;;;5.07;;
12296;SDS011;6211;49.124;9.152;2023-08-21T07:16:32;6.10;;;4.47;;
12296;SDS011;6211;49.124;9.152;2023-08-21T07:18:59;6.65;;;5.43;;
12296;SDS011;6211;49.124;9.152;2023-08-21T07:21:27;7.82;;;5.28;;
12296;SDS011;6211;49.124;9.152;2023-08-21T07:23:54;7.65;;;4.68;;
12296;SDS011;6211;49.124;9.152;2023-08-21T07:26:21;7.25;;;5.07;;
12296;SDS011;6211;49.124;9.152;2023-08-21T07:28:50;7.70;;;4.78;;
12296;SDS011;6211;49.124;9.152;2023-08-21T07:31:18;7.88;;;5.28;;
12296;SDS011;6211;49.124;9.152;2023-08-21T07:33:45;7.22;;;4.65;;
12296;SDS011;6211;49.124;9.152;2023-08-21T07:36:12;7.10;;;4.68;;
12296;SDS011;6211;49.124;9.152;2023-08-21T07:38:42;8.77;;;5.35;;
12296;SDS011;6211;49.124;9.152;2023-08-21T07:41:10;5.70;;;5.05;;
12296;SDS011;6211;49.124;9.152;2023-08-21T07:43:37;5.40;;;4.65;;
12296;SDS011;6211;49.124;9.152;2023-08-21T07:46:06;6.60;;;4.95;;
12296;SDS011;6211;49.124;9.152;2023-08-21T07:48:34;6.70;;;5.10;;
12296;SDS011;6211;49.124;9.152;2023-08-21T07:51:02;6.93;;;4.57;;
12296;SDS011;6211;49.124;9.152;2023-08-21T07:53:29;6.78;;;4.68;;
12296;SDS011;6211;49.124;9.152;2023-08-21T07:55:56;5.90;;;5.30;;
12296;SDS011;6211;49.124;9.152;2023-08-21T07:58:23;7.28;;;5.13;;
12296;SDS011;6211;49.124;9.152;2023-08-21T08:00:50;5.60;;;5.00;;
12296;SDS011;6211;49.124;9.152;2023-08-21T08:03:19;7.50;;;5.22;;
12296;SDS011;6211;49.124;9.152;2023-08-21T08:05:46;7.05;;;5.28;;
12296;SDS011;6211;49.124;9.152;2023-08-21T08:08:13;6.22;;;4.38;;
12296;SDS011;6211;49.124;9.152;2023-08-21T08:10:40;6.57;;;4.95;;
12296;SDS011;6211;49.124;9.152;2023-08-21T08:13:07;6.05;;;4.53;;
12296;SDS011;6211;49.124;9.152;2023-08-21T08:15:34;6.55;;;4.75;;
12296;SDS011;6211;49.124;9.152;2023-08-21T08:18:02;6.50;;;5.40;;
12296;SDS011;6211;49.124;9.152;2023-08-21T08:20:32;5.70;;;4.75;;
12296;SDS011;6211;49.124;9.152;2023-08-21T08:22:59;6.05;;;4.95;;
12296;SDS011;6211;49.124;9.152;2023-08-21T08:25:26;7.75;;;5.15;;
12296;SDS011;6211;49.124;9.152;2023-08-21T08:27:53;7.25;;;5.03;;
12296;SDS011;6211;49.124;9.152;2023-08-21T08:30:20;6.63;;;4.97;;
12296;SDS011;6211;49.124;9.152;2023-08-21T08:32:49;5.55;;;4.82;;
12296;SDS011;6211;49.124;9.152;2023-08-21T08:35:16;6.57;;;4.70;;
12296;SDS011;6211;49.124;9.152;2023-08-21T08:37:44;5.50;;;4.95;;
12296;SDS011;6211;49.124;9.152;2023-08-21T08:40:11;6.63;;;4.65;;
12296;SDS011;6211;49.124;9.152;2023-08-21T08:42:38;6.40;;;5.10;;
12296;SDS011;6211;49.124;9.152;2023-08-21T08:45:06;6.30;;;5.70;;
12296;SDS011;6211;49.124;9.152;2023-08-21T08:47:34;6.97;;;5.53;;
12296;SDS011;6211;49.124;9.152;2023-08-21T08:50:01;5.85;;;4.80;;
12296;SDS011;6211;49.124;9.152;2023-08-21T08:52:30;6.97;;;4.88;;
12296;SDS011;6211;49.124;9.152;2023-08-21T08:54:59;5.70;;;5.07;;
12296;SDS011;6211;49.124;9.152;2023-08-21T08:57:26;5.80;;;4.82;;
12296;SDS011;6211;49.124;9.152;2023-08-21T08:59:53;6.85;;;5.43;;
12296;SDS011;6211;49.124;9.152;2023-08-21T09:02:20;7.25;;;5.05;;
12296;SDS011;6211;49.124;9.152;2023-08-21T09:04:48;6.15;;;5.55;;
12296;SDS011;6211;49.124;9.152;2023-08-21T09:07:16;6.32;;;5.15;;
12296;SDS011;6211;49.124;9.152;2023-08-21T09:09:44;6.72;;;5.72;;
12296;SDS011;6211;49.124;9.152;2023-08-21T09:12:13;6.72;;;5.05;;
12296;SDS011;6211;49.124;9.152;2023-08-21T09:14:41;6.10;;;5.25;;
12296;SDS011;6211;49.124;9.152;2023-08-21T09:17:08;6.78;;;5.07;;
12296;SDS011;6211;49.124;9.152;2023-08-21T09:19:36;10.70;;;6.22;;
12296;SDS011;6211;49.124;9.152;2023-08-21T09:22:07;5.88;;;5.30;;
12296;SDS011;6211;49.124;9.152;2023-08-21T09:24:35;7.47;;;5.20;;
12296;SDS011;6211;49.124;9.152;2023-08-21T09:27:02;7.53;;;5.32;;
12296;SDS011;6211;49.124;9.152;2023-08-21T09:29:38;5.70;;;4.82;;
12296;SDS011;6211;49.124;9.152;2023-08-21T09:32:06;8.45;;;5.38;;
12296;SDS011;6211;49.124;9.152;2023-08-21T09:34:34;5.70;;;5.18;;
12296;SDS011;6211;49.124;9.152;2023-08-21T09:37:04;5.43;;;4.68;;
12296;SDS011;6211;49.124;9.152;2023-08-21T09:39:32;6.28;;;5.32;;
12296;SDS011;6211;49.124;9.152;2023-08-21T09:42:00;6.13;;;5.00;;
12296;SDS011;6211;49.124;9.152;2023-08-21T09:44:27;6.20;;;4.57;;
12296;SDS011;6211;49.124;9.152;2023-08-21T09:46:56;5.75;;;4.60;;
12296;SDS011;6211;49.124;9.152;2023-08-21T09:49:23;5.35;;;4.85;;
12296;SDS011;6211;49.124;9.152;2023-08-21T09:51:50;6.15;;;4.68;;
12296;SDS011;6211;49.124;9.152;2023-08-21T09:54:18;5.13;;;4.63;;
12296;SDS011;6211;49.124;9.152;2023-08-21T09:56:45;5.20;;;4.70;;
12296;SDS011;6211;49.124;9.152;2023-08-21T09:59:13;4.35;;;3.95;;
12296;SDS011;6211;49.124;9.152;2023-08-21T10:01:40;3.97;;;3.58;;
12296;SDS011;6211;49.124;9.152;2023-08-21T10:04:09;4.15;;;3.75;;
12296;SDS011;6211;49.124;9.152;2023-08-21T10:06:37;3.95;;;3.55;;
12296;SDS011;6211;49.124;9.152;2023-08-21T10:09:05;5.45;;;3.40;;
12296;SDS011;6211;49.124;9.152;2023-08-21T10:11:32;3.80;;;3.50;;
12296;SDS011;6211;49.124;9.152;2023-08-21T10:14:00;4.32;;;3.90;;
12296;SDS011;6211;49.124;9.152;2023-08-21T10:16:27;5.00;;;4.00;;
12296;SDS011;6211;49.124;9.152;2023-08-21T10:18:54;4.20;;;3.72;;
12296;SDS011;6211;49.124;9.152;2023-08-21T10:21:23;5.97;;;4.22;;
12296;SDS011;6211;49.124;9.152;2023-08-21T10:23:51;5.10;;;4.25;;
12296;SDS011;6211;49.124;9.152;2023-08-21T10:26:22;4.10;;;3.60;;
12296;SDS011;6211;49.124;9.152;2023-08-21T10:28:50;3.78;;;3.42;;
12296;SDS011;6211;49.124;9.152;2023-08-21T10:31:27;2.72;;;2.53;;
12296;SDS011;6211;49.124;9.152;2023-08-21T10:33:55;3.55;;;3.00;;
12296;SDS011;6211;49.124;9.152;2023-08-21T10:36:39;2.80;;;2.60;;
12296;SDS011;6211;49.124;9.152;2023-08-21T10:39:12;4.05;;;2.30;;
12296;SDS011;6211;49.124;9.152;2023-08-21T10:41:39;2.90;;;2.45;;
12296;SDS011;6211;49.124;9.152;2023-08-21T10:44:07;3.35;;;2.92;;
12296;SDS011;6211;49.124;9.152;2023-08-21T10:49:16;3.35;;;3.05;;
12296;SDS011;6211;49.124;9.152;2023-08-21T10:51:44;5.57;;;3.25;;
12296;SDS011;6211;49.124;9.152;2023-08-21T10:54:13;4.00;;;3.00;;
12296;SDS011;6211;49.124;9.152;2023-08-21T10:56:40;4.85;;;3.03;;
12296;SDS011;6211;49.124;9.152;2023-08-21T10:59:07;4.28;;;2.90;;
12296;SDS011;6211;49.124;9.152;2023-08-21T11:01:42;3.83;;;3.40;;
12296;SDS011;6211;49.124;9.152;2023-08-21T11:04:09;3.55;;;3.10;;
12296;SDS011;6211;49.124;9.152;2023-08-21T11:06:36;4.60;;;3.20;;
12296;SDS011;6211;49.124;9.152;2023-08-21T11:09:05;4.25;;;3.40;;
12296;SDS011;6211;49.124;9.152;2023-08-21T11:11:39;3.05;;;2.80;;
12296;SDS011;6211;49.124;9.152;2023-08-21T11:14:06;3.90;;;3.50;;
12296;SDS011;6211;49.124;9.152;2023-08-21T11:16:33;4.00;;;3.60;;
12296;SDS011;6211;49.124;9.152;2023-08-21T11:19:03;4.07;;;3.42;;
12296;SDS011;6211;49.124;9.152;2023-08-21T11:21:30;5.13;;;4.00;;
12296;SDS011;6211;49.124;9.152;2023-08-21T11:23:57;5.68;;;3.50;;
12296;SDS011;6211;49.124;9.152;2023-08-21T11:26:26;3.50;;;3.20;;
12296;SDS011;6211;49.124;9.152;2023-08-21T11:28:53;3.70;;;3.30;;
12296;SDS011;6211;49.124;9.152;2023-08-21T11:31:22;3.70;;;3.33;;
12296;SDS011;6211;49.124;9.152;2023-08-21T11:33:49;4.30;;;3.22;;
12296;SDS011;6211;49.124;9.152;2023-08-21T11:36:17;3.92;;;3.53;;
12296;SDS011;6211;49.124;9.152;2023-08-21T11:38:57;4.10;;;3.55;;
12296;SDS011;6211;49.124;9.152;2023-08-21T11:41:26;4.25;;;3.40;;
12296;SDS011;6211;49.124;9.152;2023-08-21T11:43:57;6.50;;;3.72;;
12296;SDS011;6211;49.124;9.152;2023-08-21T11:46:28;3.58;;;3.28;;
12296;SDS011;6211;49.124;9.152;2023-08-21T11:48:55;3.67;;;3.30;;
12296;SDS011;6211;49.124;9.152;2023-08-21T11:51:22;3.53;;;3.22;;
12296;SDS011;6211;49.124;9.152;2023-08-21T11:53:49;3.58;;;3.28;;
12296;SDS011;6211;49.124;9.152;2023-08-21T11:56:17;4.00;;;3.35;;
12296;SDS011;6211;49.124;9.152;2023-08-21T11:58:45;3.53;;;3.00;;
12296;SDS011;6211;49.124;9.152;2023-08-21T12:01:16;4.55;;;3.40;;
12296;SDS011;6211;49.124;9.152;2023-08-21T12:03:43;5.55;;;3.15;;
12296;SDS011;6211;49.124;9.152;2023-08-21T12:06:10;3.30;;;3.00;;
12296;SDS011;6211;49.124;9.152;2023-08-21T12:08:38;4.50;;;3.40;;
12296;SDS011;6211;49.124;9.152;2023-08-21T12:11:05;4.05;;;3.22;;
12296;SDS011;6211;49.124;9.152;2023-08-21T12:13:32;3.53;;;3.15;;
12296;SDS011;6211;49.124;9.152;2023-08-21T12:16:01;3.10;;;2.85;;
12296;SDS011;6211;49.124;9.152;2023-08-21T12:18:28;5.28;;;3.15;;
12296;SDS011;6211;49.124;9.152;2023-08-21T12:20:55;3.53;;;3.22;;
12296;SDS011;6211;49.124;9.152;2023-08-21T12:23:22;2.78;;;2.58;;
12296;SDS011;6211;49.124;9.152;2023-08-21T12:25:50;3.47;;;3.17;;
12296;SDS011;6211;49.124;9.152;2023-08-21T12:28:17;3.38;;;3.08;;
12296;SDS011;6211;49.124;9.152;2023-08-21T12:30:44;4.50;;;3.65;;
12296;SDS011;6211;49.124;9.152;2023-08-21T12:33:13;6.03;;;3.40;;
12296;SDS011;6211;49.124;9.152;2023-08-21T12:35:40;3.42;;;3.13;;
12296;SDS011;6211;49.124;9.152;2023-08-21T12:38:10;3.85;;;3.35;;
12296;SDS011;6211;49.124;9.152;2023-08-21T12:40:38;3.60;;;2.97;;
12296;SDS011;6211;49.124;9.152;2023-08-21T12:43:05;3.90;;;3.15;;
12296;SDS011;6211;49.124;9.152;2023-08-21T12:45:32;4.22;;;2.78;;
12296;SDS011;6211;49.124;9.152;2023-08-21T12:47:59;3.15;;;2.90;;
12296;SDS011;6211;49.124;9.152;2023-08-21T12:50:30;2.92;;;2.72;;
12296;SDS011;6211;49.124;9.152;2023-08-21T12:52:57;4.13;;;2.80;;
12296;SDS011;6211;49.124;9.152;2023-08-21T12:55:24;3.38;;;2.90;;
12296;SDS011;6211;49.124;9.152;2023-08-21T12:57:52;2.75;;;2.55;;
12296;SDS011;6211;49.124;9.152;2023-08-21T13:00:19;3.03;;;2.72;;
12296;SDS011;6211;49.124;9.152;2023-08-21T13:02:46;3.03;;;2.75;;
12296;SDS011;6211;49.124;9.152;2023-08-21T13:05:14;3.17;;;2.80;;
12296;SDS011;6211;49.124;9.152;2023-08-21T13:07:42;4.00;;;2.83;;
12296;SDS011;6211;49.124;9.152;2023-08-21T13:10:09;4.90;;;3.25;;
12296;SDS011;6211;49.124;9.152;2023-08-21T13:12:36;4.30;;;3.20;;
12296;SDS011;6211;49.124;9.152;2023-08-21T13:15:04;4.50;;;2.60;;
12296;SDS011;6211;49.124;9.152;2023-08-21T13:17:32;4.07;;;3.50;;
12296;SDS011;6211;49.124;9.152;2023-08-21T13:19:59;3.25;;;2.90;;
12296;SDS011;6211;49.124;9.152;2023-08-21T13:22:26;3.78;;;3.47;;
12296;SDS011;6211;49.124;9.152;2023-08-21T13:24:55;3.20;;;2.90;;
12296;SDS011;6211;49.124;9.152;2023-08-21T13:27:23;3.63;;;3.30;;
12296;SDS011;6211;49.124;9.152;2023-08-21T13:29:53;4.45;;;3.67;;
12296;SDS011;6211;49.124;9.152;2023-08-21T13:32:20;5.53;;;3.15;;
12296;SDS011;6211;49.124;9.152;2023-08-21T13:34:47;3.55;;;2.90;;
12296;SDS011;6211;49.124;9.152;2023-08-21T13:37:14;4.28;;;3.70;;
12296;SDS011;6211;49.124;9.152;2023-08-21T13:39:41;4.43;;;3.63;;
12296;SDS011;6211;49.124;9.152;2023-08-21T13:42:10;5.50;;;3.30;;
12296;SDS011;6211;49.124;9.152;2023-08-21T13:44:37;6.13;;;3.50;;
12296;SDS011;6211;49.124;9.152;2023-08-21T13:47:04;3.65;;;3.35;;
12296;SDS011;6211;49.124;9.152;2023-08-21T13:49:31;4.57;;;3.65;;
12296;SDS011;6211;49.124;9.152;2023-08-21T13:51:58;3.35;;;3.05;;
12296;SDS011;6211;49.124;9.152;2023-08-21T13:54:25;3.20;;;2.90;;
12296;SDS011;6211;49.124;9.152;2023-08-21T13:56:53;5.05;;;3.33;;
12296;SDS011;6211;49.124;9.152;2023-08-21T13:59:21;4.88;;;3.70;;
12296;SDS011;6211;49.124;9.152;2023-08-21T14:01:48;5.15;;;3.50;;
12296;SDS011;6211;49.124;9.152;2023-08-21T14:04:15;3.45;;;3.00;;
12296;SDS011;6211;49.124;9.152;2023-08-21T14:06:42;3.75;;;3.45;;
12296;SDS011;6211;49.124;9.152;2023-08-21T14:09:10;4.55;;;3.95;;
12296;SDS011;6211;49.124;9.152;2023-08-21T14:11:38;4.70;;;4.05;;
12296;SDS011;6211;49.124;9.152;2023-08-21T14:14:06;3.72;;;3.25;;
12296;SDS011;6211;49.124;9.152;2023-08-21T14:16:34;3.78;;;3.38;;
12296;SDS011;6211;49.124;9.152;2023-08-21T14:19:02;3.42;;;3.13;;
12296;SDS011;6211;49.124;9.152;2023-08-21T14:21:30;6.85;;;3.10;;
12296;SDS011;6211;49.124;9.152;2023-08-21T14:23:57;3.03;;;2.72;;
12296;SDS011;6211;49.124;9.152;2023-08-21T14:26:25;3.50;;;2.90;;
12296;SDS011;6211;49.124;9.152;2023-08-21T14:28:53;4.60;;;3.20;;
12296;SDS011;6211;49.124;9.152;2023-08-21T14:31:23;2.63;;;2.42;;
12296;SDS011;6211;49.124;9.152;2023-08-21T14:33:52;3.00;;;2.42;;
12296;SDS011;6211;49.124;9.152;2023-08-21T14:36:26;2.90;;;2.67;;
12296;SDS011;6211;49.124;9.152;2023-08-21T14:38:53;2.85;;;2.65;;
12296;SDS011;6211;49.124;9.152;2023-08-21T14:41:20;3.00;;;2.70;;
12296;SDS011;6211;49.124;9.152;2023-08-21T14:43:48;2.42;;;2.20;;
12296;SDS011;6211;49.124;9.152;2023-08-21T14:46:15;6.03;;;2.95;;
12296;SDS011;6211;49.124;9.152;2023-08-21T14:48:42;4.90;;;3.28;;
12296;SDS011;6211;49.124;9.152;2023-08-21T14:51:11;4.63;;;3.17;;
12296;SDS011;6211;49.124;9.152;2023-08-21T14:53:38;5.15;;;2.67;;
12296;SDS011;6211;49.124;9.152;2023-08-21T14:56:05;3.60;;;3.10;;
12296;SDS011;6211;49.124;9.152;2023-08-21T14:58:32;3.13;;;2.80;;
12296;SDS011;6211;49.124;9.152;2023-08-21T15:00:59;3.97;;;3.25;;
12296;SDS011;6211;49.124;9.152;2023-08-21T15:03:26;3.90;;;3.15;;
12296;SDS011;6211;49.124;9.152;2023-08-21T15:05:53;3.20;;;2.67;;
12296;SDS011;6211;49.124;9.152;2023-08-21T15:08:22;3.83;;;2.83;;